sensor_id;sensor_type;location;lat;lon;timestamp;P1;durP1;ratioP1;P2;durP2;ratioP2
4222;SDS011;2125;51.436;14.138;2022-07-29T00:00:54;5.83;;;2.70;;
4222;SDS011;2125;51.436;14.138;2022-07-29T00:03:20;6.87;;;2.33;;
4222;SDS011;2125;51.436;14.138;2022-07-29T00:05:47;3.53;;;2.20;;
4222;SDS011;2125;51.436;14.138;2022-07-29T00:08:13;5.40;;;2.27;;
4222;SDS011;2125;51.436;14.138;2022-07-29T00:10:42;5.43;;;2.50;;
4222;SDS011;2125;51.436;14.138;2022-07-29T00:13:09;5.30;;;2.40;;
4222;SDS011;2125;51.436;14.138;2022-07-29T00:15:35;6.67;;;2.37;;
4222;SDS011;2125;51.436;14.138;2022-07-29T00:18:02;8.63;;;2.27;;
4222;SDS011;2125;51.436;14.138;2022-07-29T00:20:29;4.60;;;2.50;;
4222;SDS011;2125;51.436;14.138;2022-07-29T00:22:55;6.67;;;2.70;;
4222;SDS011;2125;51.436;14.138;2022-07-29T00:25:22;3.50;;;2.00;;
4222;SDS011;2125;51.436;14.138;2022-07-29T00:27:50;3.23;;;2.43;;
4222;SDS011;2125;51.436;14.138;2022-07-29T00:30:17;4.27;;;2.20;;
4222;SDS011;2125;51.436;14.138;2022-07-29T00:32:43;4.83;;;2.40;;
4222;SDS011;2125;51.436;14.138;2022-07-29T00:35:10;4.60;;;2.63;;
4222;SDS011;2125;51.436;14.138;2022-07-29T00:37:55;5.40;;;2.30;;
4222;SDS011;2125;51.436;14.138;2022-07-29T00:40:21;6.50;;;2.50;;
4222;SDS011;2125;51.436;14.138;2022-07-29T00:42:48;3.73;;;2.60;;
4222;SDS011;2125;51.436;14.138;2022-07-29T00:45:17;5.33;;;2.70;;
4222;SDS011;2125;51.436;14.138;2022-07-29T00:47:44;9.43;;;2.50;;
4222;SDS011;2125;51.436;14.138;2022-07-29T00:50:12;4.37;;;2.80;;
4222;SDS011;2125;51.436;14.138;2022-07-29T00:52:39;3.83;;;2.50;;
4222;SDS011;2125;51.436;14.138;2022-07-29T00:55:08;5.67;;;2.80;;
4222;SDS011;2125;51.436;14.138;2022-07-29T00:57:36;6.17;;;2.90;;
4222;SDS011;2125;51.436;14.138;2022-07-29T01:00:06;6.43;;;3.13;;
4222;SDS011;2125;51.436;14.138;2022-07-29T01:02:34;6.50;;;3.20;;
4222;SDS011;2125;51.436;14.138;2022-07-29T01:05:01;8.30;;;2.87;;
4222;SDS011;2125;51.436;14.138;2022-07-29T01:07:28;4.27;;;3.20;;
4222;SDS011;2125;51.436;14.138;2022-07-29T01:09:56;4.43;;;2.43;;
4222;SDS011;2125;51.436;14.138;2022-07-29T01:12:24;5.20;;;3.10;;
4222;SDS011;2125;51.436;14.138;2022-07-29T01:14:52;7.40;;;3.37;;
4222;SDS011;2125;51.436;14.138;2022-07-29T01:17:23;3.90;;;2.80;;
4222;SDS011;2125;51.436;14.138;2022-07-29T01:19:53;5.93;;;2.70;;
4222;SDS011;2125;51.436;14.138;2022-07-29T01:22:28;5.00;;;2.97;;
4222;SDS011;2125;51.436;14.138;2022-07-29T01:25:10;5.87;;;2.30;;
4222;SDS011;2125;51.436;14.138;2022-07-29T01:27:50;9.63;;;3.47;;
4222;SDS011;2125;51.436;14.138;2022-07-29T01:30:28;6.10;;;3.00;;
4222;SDS011;2125;51.436;14.138;2022-07-29T01:32:59;5.17;;;2.90;;
4222;SDS011;2125;51.436;14.138;2022-07-29T01:35:28;5.80;;;2.80;;
4222;SDS011;2125;51.436;14.138;2022-07-29T01:38:01;3.80;;;2.90;;
4222;SDS011;2125;51.436;14.138;2022-07-29T01:40:34;5.40;;;2.90;;
4222;SDS011;2125;51.436;14.138;2022-07-29T01:43:06;5.87;;;2.70;;
4222;SDS011;2125;51.436;14.138;2022-07-29T01:45:40;4.70;;;2.83;;
4222;SDS011;2125;51.436;14.138;2022-07-29T01:48:10;6.33;;;2.60;;
4222;SDS011;2125;51.436;14.138;2022-07-29T01:50:42;4.93;;;2.90;;
4222;SDS011;2125;51.436;14.138;2022-07-29T01:53:14;4.90;;;2.50;;
4222;SDS011;2125;51.436;14.138;2022-07-29T01:55:47;8.63;;;3.50;;
4222;SDS011;2125;51.436;14.138;2022-07-29T01:58:15;8.00;;;2.40;;
4222;SDS011;2125;51.436;14.138;2022-07-29T02:00:46;7.77;;;3.27;;
4222;SDS011;2125;51.436;14.138;2022-07-29T02:03:14;6.13;;;2.80;;
4222;SDS011;2125;51.436;14.138;2022-07-29T02:05:43;4.60;;;2.50;;
4222;SDS011;2125;51.436;14.138;2022-07-29T02:08:12;11.27;;;2.60;;
4222;SDS011;2125;51.436;14.138;2022-07-29T02:10:41;5.63;;;3.00;;
4222;SDS011;2125;51.436;14.138;2022-07-29T02:13:10;5.33;;;2.93;;
4222;SDS011;2125;51.436;14.138;2022-07-29T02:15:38;5.60;;;2.77;;
4222;SDS011;2125;51.436;14.138;2022-07-29T02:18:10;4.30;;;2.53;;
4222;SDS011;2125;51.436;14.138;2022-07-29T02:20:41;4.53;;;2.60;;
4222;SDS011;2125;51.436;14.138;2022-07-29T02:23:10;4.40;;;2.67;;
4222;SDS011;2125;51.436;14.138;2022-07-29T02:25:38;5.03;;;2.60;;
4222;SDS011;2125;51.436;14.138;2022-07-29T02:28:07;4.87;;;2.80;;
4222;SDS011;2125;51.436;14.138;2022-07-29T02:30:35;7.03;;;3.20;;
4222;SDS011;2125;51.436;14.138;2022-07-29T02:33:04;5.10;;;3.07;;
4222;SDS011;2125;51.436;14.138;2022-07-29T02:35:34;6.10;;;3.03;;
4222;SDS011;2125;51.436;14.138;2022-07-29T02:38:02;3.93;;;2.90;;
4222;SDS011;2125;51.436;14.138;2022-07-29T02:40:57;5.70;;;2.97;;
4222;SDS011;2125;51.436;14.138;2022-07-29T02:43:26;3.70;;;2.60;;
4222;SDS011;2125;51.436;14.138;2022-07-29T02:45:53;6.40;;;3.17;;
4222;SDS011;2125;51.436;14.138;2022-07-29T02:48:24;7.60;;;2.83;;
4222;SDS011;2125;51.436;14.138;2022-07-29T02:50:58;7.40;;;3.03;;
4222;SDS011;2125;51.436;14.138;2022-07-29T02:53:31;4.23;;;2.80;;
4222;SDS011;2125;51.436;14.138;2022-07-29T02:56:01;8.10;;;2.70;;
4222;SDS011;2125;51.436;14.138;2022-07-29T02:58:32;10.10;;;3.00;;
4222;SDS011;2125;51.436;14.138;2022-07-29T03:01:04;5.40;;;2.93;;
4222;SDS011;2125;51.436;14.138;2022-07-29T03:03:37;9.43;;;3.17;;
4222;SDS011;2125;51.436;14.138;2022-07-29T03:06:06;10.67;;;2.90;;
4222;SDS011;2125;51.436;14.138;2022-07-29T03:08:34;11.23;;;3.27;;
4222;SDS011;2125;51.436;14.138;2022-07-29T03:11:01;6.60;;;3.20;;
4222;SDS011;2125;51.436;14.138;2022-07-29T03:13:29;5.07;;;2.53;;
4222;SDS011;2125;51.436;14.138;2022-07-29T03:15:57;4.40;;;3.17;;
4222;SDS011;2125;51.436;14.138;2022-07-29T03:18:24;5.90;;;2.83;;
4222;SDS011;2125;51.436;14.138;2022-07-29T03:20:51;7.20;;;3.03;;
4222;SDS011;2125;51.436;14.138;2022-07-29T03:23:19;5.33;;;3.37;;
4222;SDS011;2125;51.436;14.138;2022-07-29T03:25:47;6.33;;;2.70;;
4222;SDS011;2125;51.436;14.138;2022-07-29T03:28:14;3.70;;;2.33;;
4222;SDS011;2125;51.436;14.138;2022-07-29T03:30:41;5.43;;;2.70;;
4222;SDS011;2125;51.436;14.138;2022-07-29T03:33:07;10.10;;;3.00;;
4222;SDS011;2125;51.436;14.138;2022-07-29T03:35:34;12.53;;;3.33;;
4222;SDS011;2125;51.436;14.138;2022-07-29T03:38:01;4.10;;;2.60;;
4222;SDS011;2125;51.436;14.138;2022-07-29T03:40:30;13.93;;;3.00;;
4222;SDS011;2125;51.436;14.138;2022-07-29T03:42:59;5.67;;;2.80;;
4222;SDS011;2125;51.436;14.138;2022-07-29T03:45:29;6.80;;;2.57;;
4222;SDS011;2125;51.436;14.138;2022-07-29T03:47:59;6.40;;;3.27;;
4222;SDS011;2125;51.436;14.138;2022-07-29T03:50:30;13.90;;;3.30;;
4222;SDS011;2125;51.436;14.138;2022-07-29T03:52:57;7.17;;;3.17;;
4222;SDS011;2125;51.436;14.138;2022-07-29T03:55:25;8.10;;;3.00;;
4222;SDS011;2125;51.436;14.138;2022-07-29T03:57:55;12.47;;;3.43;;
4222;SDS011;2125;51.436;14.138;2022-07-29T04:00:23;6.97;;;3.50;;
4222;SDS011;2125;51.436;14.138;2022-07-29T04:02:51;9.60;;;3.00;;
4222;SDS011;2125;51.436;14.138;2022-07-29T04:05:18;12.63;;;2.93;;
4222;SDS011;2125;51.436;14.138;2022-07-29T04:07:45;6.30;;;3.17;;
4222;SDS011;2125;51.436;14.138;2022-07-29T04:10:12;5.97;;;3.00;;
4222;SDS011;2125;51.436;14.138;2022-07-29T04:12:40;9.93;;;3.10;;
4222;SDS011;2125;51.436;14.138;2022-07-29T04:15:09;9.30;;;3.83;;
4222;SDS011;2125;51.436;14.138;2022-07-29T04:17:37;6.30;;;2.90;;
4222;SDS011;2125;51.436;14.138;2022-07-29T04:20:04;17.00;;;3.60;;
4222;SDS011;2125;51.436;14.138;2022-07-29T04:22:31;13.23;;;3.43;;
4222;SDS011;2125;51.436;14.138;2022-07-29T04:24:58;13.77;;;3.23;;
4222;SDS011;2125;51.436;14.138;2022-07-29T04:27:25;11.93;;;2.73;;
4222;SDS011;2125;51.436;14.138;2022-07-29T04:29:51;12.10;;;3.23;;
4222;SDS011;2125;51.436;14.138;2022-07-29T04:32:19;9.63;;;3.13;;
4222;SDS011;2125;51.436;14.138;2022-07-29T04:34:46;13.40;;;3.30;;
4222;SDS011;2125;51.436;14.138;2022-07-29T04:37:12;6.40;;;3.20;;
4222;SDS011;2125;51.436;14.138;2022-07-29T04:39:39;7.03;;;2.93;;
4222;SDS011;2125;51.436;14.138;2022-07-29T04:42:06;6.03;;;3.13;;
4222;SDS011;2125;51.436;14.138;2022-07-29T04:44:32;9.80;;;3.20;;
4222;SDS011;2125;51.436;14.138;2022-07-29T04:46:59;7.50;;;2.90;;
4222;SDS011;2125;51.436;14.138;2022-07-29T04:49:27;5.20;;;2.57;;
4222;SDS011;2125;51.436;14.138;2022-07-29T04:51:53;11.10;;;3.23;;
4222;SDS011;2125;51.436;14.138;2022-07-29T04:54:20;11.23;;;3.00;;
4222;SDS011;2125;51.436;14.138;2022-07-29T04:56:47;8.53;;;3.47;;
4222;SDS011;2125;51.436;14.138;2022-07-29T04:59:14;8.63;;;2.80;;
4222;SDS011;2125;51.436;14.138;2022-07-29T05:01:41;6.40;;;3.07;;
4222;SDS011;2125;51.436;14.138;2022-07-29T05:04:07;10.30;;;2.80;;
4222;SDS011;2125;51.436;14.138;2022-07-29T05:06:35;11.50;;;3.03;;
4222;SDS011;2125;51.436;14.138;2022-07-29T05:09:02;20.97;;;3.37;;
4222;SDS011;2125;51.436;14.138;2022-07-29T05:11:29;11.97;;;3.23;;
4222;SDS011;2125;51.436;14.138;2022-07-29T05:13:55;18.80;;;3.57;;
4222;SDS011;2125;51.436;14.138;2022-07-29T05:16:22;18.70;;;3.43;;
4222;SDS011;2125;51.436;14.138;2022-07-29T05:18:48;15.90;;;3.40;;
4222;SDS011;2125;51.436;14.138;2022-07-29T05:21:15;12.00;;;3.30;;
4222;SDS011;2125;51.436;14.138;2022-07-29T05:23:43;15.10;;;3.47;;
4222;SDS011;2125;51.436;14.138;2022-07-29T05:26:09;13.40;;;3.63;;
4222;SDS011;2125;51.436;14.138;2022-07-29T05:28:36;15.57;;;3.63;;
4222;SDS011;2125;51.436;14.138;2022-07-29T05:31:03;25.43;;;3.53;;
4222;SDS011;2125;51.436;14.138;2022-07-29T05:33:33;28.43;;;4.07;;
4222;SDS011;2125;51.436;14.138;2022-07-29T05:35:59;19.13;;;3.83;;
4222;SDS011;2125;51.436;14.138;2022-07-29T05:38:26;43.50;;;13.90;;
4222;SDS011;2125;51.436;14.138;2022-07-29T05:40:57;26.03;;;3.77;;
4222;SDS011;2125;51.436;14.138;2022-07-29T05:43:24;27.03;;;4.27;;
4222;SDS011;2125;51.436;14.138;2022-07-29T05:45:54;38.07;;;4.70;;
4222;SDS011;2125;51.436;14.138;2022-07-29T05:48:20;44.47;;;4.60;;
4222;SDS011;2125;51.436;14.138;2022-07-29T05:50:47;35.10;;;4.57;;
4222;SDS011;2125;51.436;14.138;2022-07-29T05:53:14;20.00;;;3.70;;
4222;SDS011;2125;51.436;14.138;2022-07-29T05:55:42;16.03;;;3.50;;
4222;SDS011;2125;51.436;14.138;2022-07-29T05:58:13;13.93;;;3.53;;
4222;SDS011;2125;51.436;14.138;2022-07-29T06:00:40;11.60;;;3.10;;
4222;SDS011;2125;51.436;14.138;2022-07-29T06:03:06;30.73;;;3.30;;
4222;SDS011;2125;51.436;14.138;2022-07-29T06:05:33;15.70;;;3.30;;
4222;SDS011;2125;51.436;14.138;2022-07-29T06:08:00;5.23;;;2.90;;
4222;SDS011;2125;51.436;14.138;2022-07-29T06:10:26;11.63;;;3.40;;
4222;SDS011;2125;51.436;14.138;2022-07-29T06:12:53;7.43;;;3.20;;
4222;SDS011;2125;51.436;14.138;2022-07-29T06:15:21;9.47;;;3.07;;
4222;SDS011;2125;51.436;14.138;2022-07-29T06:17:48;11.33;;;2.60;;
4222;SDS011;2125;51.436;14.138;2022-07-29T06:20:14;5.30;;;3.10;;
4222;SDS011;2125;51.436;14.138;2022-07-29T06:22:41;6.70;;;2.90;;
4222;SDS011;2125;51.436;14.138;2022-07-29T06:25:07;13.67;;;3.03;;
4222;SDS011;2125;51.436;14.138;2022-07-29T06:27:34;12.50;;;3.43;;
4222;SDS011;2125;51.436;14.138;2022-07-29T06:30:01;18.40;;;2.97;;
4222;SDS011;2125;51.436;14.138;2022-07-29T06:32:29;14.57;;;3.03;;
4222;SDS011;2125;51.436;14.138;2022-07-29T06:34:56;10.80;;;3.10;;
4222;SDS011;2125;51.436;14.138;2022-07-29T06:37:22;8.10;;;2.80;;
4222;SDS011;2125;51.436;14.138;2022-07-29T06:39:49;7.40;;;3.20;;
4222;SDS011;2125;51.436;14.138;2022-07-29T06:42:37;9.83;;;3.70;;
4222;SDS011;2125;51.436;14.138;2022-07-29T06:45:03;6.73;;;2.90;;
4222;SDS011;2125;51.436;14.138;2022-07-29T06:47:31;8.00;;;2.73;;
4222;SDS011;2125;51.436;14.138;2022-07-29T06:49:59;9.00;;;3.23;;
4222;SDS011;2125;51.436;14.138;2022-07-29T06:52:25;16.20;;;3.50;;
4222;SDS011;2125;51.436;14.138;2022-07-29T06:54:52;18.40;;;3.60;;
4222;SDS011;2125;51.436;14.138;2022-07-29T06:57:19;11.30;;;3.00;;
4222;SDS011;2125;51.436;14.138;2022-07-29T06:59:46;9.90;;;3.47;;
4222;SDS011;2125;51.436;14.138;2022-07-29T07:02:13;13.00;;;3.10;;
4222;SDS011;2125;51.436;14.138;2022-07-29T07:04:41;9.27;;;2.90;;
4222;SDS011;2125;51.436;14.138;2022-07-29T07:07:08;9.33;;;3.10;;
4222;SDS011;2125;51.436;14.138;2022-07-29T07:09:34;5.70;;;2.80;;
4222;SDS011;2125;51.436;14.138;2022-07-29T07:12:01;6.30;;;2.67;;
4222;SDS011;2125;51.436;14.138;2022-07-29T07:14:28;15.33;;;3.47;;
4222;SDS011;2125;51.436;14.138;2022-07-29T07:16:54;5.17;;;3.13;;
4222;SDS011;2125;51.436;14.138;2022-07-29T07:19:21;11.13;;;3.07;;
4222;SDS011;2125;51.436;14.138;2022-07-29T07:21:49;8.07;;;2.90;;
4222;SDS011;2125;51.436;14.138;2022-07-29T07:24:16;11.50;;;3.10;;
4222;SDS011;2125;51.436;14.138;2022-07-29T07:26:42;13.13;;;3.03;;
4222;SDS011;2125;51.436;14.138;2022-07-29T07:29:09;5.90;;;2.87;;
4222;SDS011;2125;51.436;14.138;2022-07-29T07:31:36;9.13;;;3.50;;
4222;SDS011;2125;51.436;14.138;2022-07-29T07:34:03;11.70;;;3.33;;
4222;SDS011;2125;51.436;14.138;2022-07-29T07:36:29;9.07;;;3.00;;
4222;SDS011;2125;51.436;14.138;2022-07-29T07:38:57;8.60;;;2.97;;
4222;SDS011;2125;51.436;14.138;2022-07-29T07:41:24;8.13;;;3.30;;
4222;SDS011;2125;51.436;14.138;2022-07-29T07:43:51;10.33;;;3.40;;
4222;SDS011;2125;51.436;14.138;2022-07-29T07:46:17;15.57;;;2.90;;
4222;SDS011;2125;51.436;14.138;2022-07-29T07:48:44;11.23;;;3.33;;
4222;SDS011;2125;51.436;14.138;2022-07-29T07:51:13;12.67;;;2.90;;
4222;SDS011;2125;51.436;14.138;2022-07-29T07:53:39;9.50;;;3.00;;
4222;SDS011;2125;51.436;14.138;2022-07-29T07:56:07;6.90;;;3.77;;
4222;SDS011;2125;51.436;14.138;2022-07-29T07:58:34;5.90;;;2.77;;
4222;SDS011;2125;51.436;14.138;2022-07-29T08:01:01;10.70;;;3.50;;
4222;SDS011;2125;51.436;14.138;2022-07-29T08:03:27;10.70;;;2.90;;
4222;SDS011;2125;51.436;14.138;2022-07-29T08:05:54;15.03;;;3.00;;
4222;SDS011;2125;51.436;14.138;2022-07-29T08:08:22;8.50;;;3.40;;
4222;SDS011;2125;51.436;14.138;2022-07-29T08:10:48;9.50;;;3.10;;
4222;SDS011;2125;51.436;14.138;2022-07-29T08:13:20;11.80;;;3.13;;
4222;SDS011;2125;51.436;14.138;2022-07-29T08:15:47;11.53;;;3.60;;
4222;SDS011;2125;51.436;14.138;2022-07-29T08:18:22;15.87;;;3.70;;
4222;SDS011;2125;51.436;14.138;2022-07-29T08:20:49;21.13;;;4.00;;
4222;SDS011;2125;51.436;14.138;2022-07-29T08:23:16;11.53;;;3.73;;
4222;SDS011;2125;51.436;14.138;2022-07-29T08:25:43;16.73;;;3.63;;
4222;SDS011;2125;51.436;14.138;2022-07-29T08:28:10;30.07;;;3.87;;
4222;SDS011;2125;51.436;14.138;2022-07-29T08:30:38;25.93;;;4.40;;
4222;SDS011;2125;51.436;14.138;2022-07-29T08:33:05;23.23;;;4.33;;
4222;SDS011;2125;51.436;14.138;2022-07-29T08:35:31;28.70;;;4.70;;
4222;SDS011;2125;51.436;14.138;2022-07-29T08:37:58;12.67;;;3.60;;
4222;SDS011;2125;51.436;14.138;2022-07-29T08:40:25;11.97;;;3.20;;
4222;SDS011;2125;51.436;14.138;2022-07-29T08:42:51;23.80;;;3.80;;
4222;SDS011;2125;51.436;14.138;2022-07-29T08:45:18;18.30;;;3.73;;
4222;SDS011;2125;51.436;14.138;2022-07-29T08:47:47;16.00;;;4.07;;
4222;SDS011;2125;51.436;14.138;2022-07-29T08:50:14;15.00;;;4.00;;
4222;SDS011;2125;51.436;14.138;2022-07-29T08:52:41;28.00;;;4.77;;
4222;SDS011;2125;51.436;14.138;2022-07-29T08:55:08;19.73;;;4.13;;
4222;SDS011;2125;51.436;14.138;2022-07-29T08:57:36;31.80;;;4.37;;
4222;SDS011;2125;51.436;14.138;2022-07-29T09:00:05;24.47;;;4.20;;
4222;SDS011;2125;51.436;14.138;2022-07-29T09:02:37;24.77;;;3.50;;
4222;SDS011;2125;51.436;14.138;2022-07-29T09:05:07;16.10;;;3.50;;
4222;SDS011;2125;51.436;14.138;2022-07-29T09:07:34;25.57;;;3.83;;
4222;SDS011;2125;51.436;14.138;2022-07-29T09:10:02;26.43;;;3.80;;
4222;SDS011;2125;51.436;14.138;2022-07-29T09:12:30;16.03;;;3.80;;
4222;SDS011;2125;51.436;14.138;2022-07-29T09:14:57;13.67;;;3.83;;
4222;SDS011;2125;51.436;14.138;2022-07-29T09:17:39;12.73;;;3.73;;
4222;SDS011;2125;51.436;14.138;2022-07-29T09:20:11;22.30;;;5.10;;
4222;SDS011;2125;51.436;14.138;2022-07-29T09:22:40;12.47;;;3.47;;
4222;SDS011;2125;51.436;14.138;2022-07-29T09:25:06;28.70;;;3.60;;
4222;SDS011;2125;51.436;14.138;2022-07-29T09:27:33;17.63;;;3.60;;
4222;SDS011;2125;51.436;14.138;2022-07-29T09:30:01;13.93;;;3.40;;
4222;SDS011;2125;51.436;14.138;2022-07-29T09:32:30;13.90;;;3.63;;
4222;SDS011;2125;51.436;14.138;2022-07-29T09:37:45;11.37;;;3.43;;
4222;SDS011;2125;51.436;14.138;2022-07-29T09:40:13;14.10;;;4.00;;
4222;SDS011;2125;51.436;14.138;2022-07-29T09:42:41;25.13;;;3.60;;
4222;SDS011;2125;51.436;14.138;2022-07-29T09:45:08;26.47;;;4.00;;
4222;SDS011;2125;51.436;14.138;2022-07-29T09:47:43;16.93;;;4.00;;
4222;SDS011;2125;51.436;14.138;2022-07-29T09:50:13;20.33;;;3.93;;
4222;SDS011;2125;51.436;14.138;2022-07-29T09:52:45;23.40;;;4.47;;
4222;SDS011;2125;51.436;14.138;2022-07-29T09:55:13;32.33;;;4.80;;
4222;SDS011;2125;51.436;14.138;2022-07-29T09:57:40;30.63;;;4.00;;
4222;SDS011;2125;51.436;14.138;2022-07-29T10:00:07;22.37;;;4.50;;
4222;SDS011;2125;51.436;14.138;2022-07-29T10:02:36;16.07;;;4.00;;
4222;SDS011;2125;51.436;14.138;2022-07-29T10:05:04;27.17;;;4.53;;
4222;SDS011;2125;51.436;14.138;2022-07-29T10:07:46;27.77;;;5.23;;
4222;SDS011;2125;51.436;14.138;2022-07-29T10:10:21;28.03;;;4.33;;
4222;SDS011;2125;51.436;14.138;2022-07-29T10:12:49;33.90;;;5.00;;
4222;SDS011;2125;51.436;14.138;2022-07-29T10:15:18;33.60;;;4.17;;
4222;SDS011;2125;51.436;14.138;2022-07-29T10:17:45;19.30;;;4.07;;
4222;SDS011;2125;51.436;14.138;2022-07-29T10:20:13;19.13;;;4.27;;
4222;SDS011;2125;51.436;14.138;2022-07-29T10:22:40;22.93;;;4.07;;
4222;SDS011;2125;51.436;14.138;2022-07-29T10:25:10;17.00;;;4.00;;
4222;SDS011;2125;51.436;14.138;2022-07-29T10:27:36;11.57;;;4.73;;
4222;SDS011;2125;51.436;14.138;2022-07-29T10:30:04;9.80;;;4.07;;
4222;SDS011;2125;51.436;14.138;2022-07-29T10:32:37;20.23;;;4.30;;
4222;SDS011;2125;51.436;14.138;2022-07-29T10:41:13;8.00;;;3.70;;
4222;SDS011;2125;51.436;14.138;2022-07-29T10:43:56;14.93;;;3.80;;
4222;SDS011;2125;51.436;14.138;2022-07-29T10:46:26;39.23;;;5.03;;
4222;SDS011;2125;51.436;14.138;2022-07-29T10:49:06;5.60;;;3.80;;
4222;SDS011;2125;51.436;14.138;2022-07-29T10:51:53;9.40;;;3.50;;
4222;SDS011;2125;51.436;14.138;2022-07-29T10:54:37;12.83;;;4.20;;
4222;SDS011;2125;51.436;14.138;2022-07-29T10:57:20;12.53;;;4.50;;
4222;SDS011;2125;51.436;14.138;2022-07-29T10:59:50;21.30;;;3.70;;
4222;SDS011;2125;51.436;14.138;2022-07-29T11:02:42;13.83;;;4.63;;
4222;SDS011;2125;51.436;14.138;2022-07-29T11:05:10;15.60;;;4.20;;
4222;SDS011;2125;51.436;14.138;2022-07-29T11:07:39;19.40;;;4.60;;
4222;SDS011;2125;51.436;14.138;2022-07-29T11:10:26;25.10;;;4.50;;
4222;SDS011;2125;51.436;14.138;2022-07-29T11:12:54;9.10;;;3.43;;
4222;SDS011;2125;51.436;14.138;2022-07-29T11:15:21;8.40;;;4.03;;
4222;SDS011;2125;51.436;14.138;2022-07-29T11:18:07;10.23;;;3.73;;
4222;SDS011;2125;51.436;14.138;2022-07-29T11:20:35;6.53;;;3.80;;
4222;SDS011;2125;51.436;14.138;2022-07-29T11:23:23;6.53;;;3.63;;
4222;SDS011;2125;51.436;14.138;2022-07-29T11:28:53;6.03;;;3.60;;
4222;SDS011;2125;51.436;14.138;2022-07-29T11:31:32;11.17;;;4.10;;
4222;SDS011;2125;51.436;14.138;2022-07-29T11:34:20;13.90;;;3.17;;
4222;SDS011;2125;51.436;14.138;2022-07-29T11:39:45;10.33;;;3.47;;
4222;SDS011;2125;51.436;14.138;2022-07-29T11:45:08;13.33;;;3.43;;
4222;SDS011;2125;51.436;14.138;2022-07-29T11:47:36;8.67;;;3.43;;
4222;SDS011;2125;51.436;14.138;2022-07-29T11:50:04;7.30;;;3.83;;
4222;SDS011;2125;51.436;14.138;2022-07-29T11:52:33;5.93;;;3.37;;
4222;SDS011;2125;51.436;14.138;2022-07-29T11:55:03;7.03;;;3.50;;
4222;SDS011;2125;51.436;14.138;2022-07-29T11:57:31;12.47;;;3.73;;
4222;SDS011;2125;51.436;14.138;2022-07-29T11:59:59;6.83;;;4.07;;
4222;SDS011;2125;51.436;14.138;2022-07-29T12:02:38;9.93;;;3.50;;
4222;SDS011;2125;51.436;14.138;2022-07-29T12:05:07;9.13;;;3.90;;
4222;SDS011;2125;51.436;14.138;2022-07-29T12:07:38;7.13;;;4.00;;
4222;SDS011;2125;51.436;14.138;2022-07-29T12:10:06;7.10;;;3.80;;
4222;SDS011;2125;51.436;14.138;2022-07-29T12:12:34;5.80;;;3.30;;
4222;SDS011;2125;51.436;14.138;2022-07-29T12:15:11;4.87;;;3.47;;
4222;SDS011;2125;51.436;14.138;2022-07-29T12:17:40;6.93;;;3.70;;
4222;SDS011;2125;51.436;14.138;2022-07-29T12:20:06;8.57;;;4.07;;
4222;SDS011;2125;51.436;14.138;2022-07-29T12:22:34;5.77;;;3.40;;
4222;SDS011;2125;51.436;14.138;2022-07-29T12:25:05;5.50;;;3.40;;
4222;SDS011;2125;51.436;14.138;2022-07-29T12:27:33;9.10;;;3.70;;
4222;SDS011;2125;51.436;14.138;2022-07-29T12:30:01;9.93;;;3.67;;
4222;SDS011;2125;51.436;14.138;2022-07-29T12:32:31;8.90;;;3.90;;
4222;SDS011;2125;51.436;14.138;2022-07-29T12:34:59;3.80;;;3.30;;
4222;SDS011;2125;51.436;14.138;2022-07-29T12:37:28;8.40;;;3.43;;
4222;SDS011;2125;51.436;14.138;2022-07-29T12:39:55;5.67;;;3.80;;
4222;SDS011;2125;51.436;14.138;2022-07-29T12:42:21;6.23;;;3.50;;
4222;SDS011;2125;51.436;14.138;2022-07-29T12:44:51;12.27;;;4.03;;
4222;SDS011;2125;51.436;14.138;2022-07-29T12:47:18;8.57;;;3.27;;
4222;SDS011;2125;51.436;14.138;2022-07-29T12:49:45;17.43;;;3.80;;
4222;SDS011;2125;51.436;14.138;2022-07-29T12:55:02;26.77;;;3.80;;
4222;SDS011;2125;51.436;14.138;2022-07-29T12:57:30;11.50;;;3.90;;
4222;SDS011;2125;51.436;14.138;2022-07-29T13:00:04;20.17;;;4.27;;
4222;SDS011;2125;51.436;14.138;2022-07-29T13:02:34;18.83;;;4.60;;
4222;SDS011;2125;51.436;14.138;2022-07-29T13:05:01;14.90;;;4.17;;
4222;SDS011;2125;51.436;14.138;2022-07-29T13:07:29;14.90;;;4.37;;
4222;SDS011;2125;51.436;14.138;2022-07-29T13:10:10;4.00;;;3.60;;
4222;SDS011;2125;51.436;14.138;2022-07-29T13:12:39;5.10;;;3.67;;
4222;SDS011;2125;51.436;14.138;2022-07-29T13:15:21;4.90;;;3.50;;
4222;SDS011;2125;51.436;14.138;2022-07-29T13:17:47;5.93;;;3.60;;
4222;SDS011;2125;51.436;14.138;2022-07-29T13:20:14;6.17;;;3.40;;
4222;SDS011;2125;51.436;14.138;2022-07-29T13:22:41;6.07;;;4.00;;
4222;SDS011;2125;51.436;14.138;2022-07-29T13:25:08;7.33;;;4.00;;
4222;SDS011;2125;51.436;14.138;2022-07-29T13:27:37;6.53;;;4.10;;
4222;SDS011;2125;51.436;14.138;2022-07-29T13:30:06;9.57;;;3.70;;
4222;SDS011;2125;51.436;14.138;2022-07-29T13:32:35;5.30;;;3.27;;
4222;SDS011;2125;51.436;14.138;2022-07-29T13:35:03;10.90;;;4.00;;
4222;SDS011;2125;51.436;14.138;2022-07-29T13:37:31;14.70;;;4.30;;
4222;SDS011;2125;51.436;14.138;2022-07-29T13:39:59;9.53;;;4.20;;
4222;SDS011;2125;51.436;14.138;2022-07-29T13:42:30;19.80;;;4.47;;
4222;SDS011;2125;51.436;14.138;2022-07-29T13:44:57;11.40;;;3.93;;
4222;SDS011;2125;51.436;14.138;2022-07-29T13:47:24;7.53;;;3.57;;
4222;SDS011;2125;51.436;14.138;2022-07-29T13:49:51;5.90;;;3.50;;
4222;SDS011;2125;51.436;14.138;2022-07-29T13:52:18;7.73;;;3.73;;
4222;SDS011;2125;51.436;14.138;2022-07-29T13:54:45;7.83;;;3.90;;
4222;SDS011;2125;51.436;14.138;2022-07-29T13:57:12;4.60;;;3.40;;
4222;SDS011;2125;51.436;14.138;2022-07-29T13:59:41;5.10;;;3.90;;
4222;SDS011;2125;51.436;14.138;2022-07-29T14:02:08;21.93;;;4.40;;
4222;SDS011;2125;51.436;14.138;2022-07-29T14:04:35;9.07;;;4.00;;
4222;SDS011;2125;51.436;14.138;2022-07-29T14:07:03;4.00;;;3.30;;
4222;SDS011;2125;51.436;14.138;2022-07-29T14:09:29;12.90;;;4.07;;
4222;SDS011;2125;51.436;14.138;2022-07-29T14:11:56;6.20;;;3.73;;
4222;SDS011;2125;51.436;14.138;2022-07-29T14:14:23;7.20;;;3.90;;
4222;SDS011;2125;51.436;14.138;2022-07-29T14:16:51;4.60;;;3.30;;
4222;SDS011;2125;51.436;14.138;2022-07-29T14:19:17;4.37;;;3.80;;
4222;SDS011;2125;51.436;14.138;2022-07-29T14:21:44;4.87;;;3.90;;
4222;SDS011;2125;51.436;14.138;2022-07-29T14:24:10;3.93;;;3.53;;
4222;SDS011;2125;51.436;14.138;2022-07-29T14:26:37;5.43;;;3.60;;
4222;SDS011;2125;51.436;14.138;2022-07-29T14:29:04;7.10;;;3.63;;
4222;SDS011;2125;51.436;14.138;2022-07-29T14:31:30;12.53;;;3.90;;
4222;SDS011;2125;51.436;14.138;2022-07-29T14:33:58;6.63;;;3.60;;
4222;SDS011;2125;51.436;14.138;2022-07-29T14:36:25;5.83;;;3.40;;
4222;SDS011;2125;51.436;14.138;2022-07-29T14:38:52;6.67;;;3.60;;
4222;SDS011;2125;51.436;14.138;2022-07-29T14:41:19;4.87;;;3.90;;
4222;SDS011;2125;51.436;14.138;2022-07-29T14:43:46;4.90;;;3.80;;
4222;SDS011;2125;51.436;14.138;2022-07-29T14:46:13;5.70;;;3.87;;
4222;SDS011;2125;51.436;14.138;2022-07-29T14:48:39;7.57;;;3.80;;
4222;SDS011;2125;51.436;14.138;2022-07-29T14:51:07;4.80;;;3.50;;
4222;SDS011;2125;51.436;14.138;2022-07-29T14:53:34;4.73;;;3.43;;
4222;SDS011;2125;51.436;14.138;2022-07-29T14:56:00;7.40;;;3.70;;
4222;SDS011;2125;51.436;14.138;2022-07-29T14:58:27;9.23;;;3.93;;
4222;SDS011;2125;51.436;14.138;2022-07-29T15:00:54;4.30;;;3.80;;
4222;SDS011;2125;51.436;14.138;2022-07-29T15:03:21;7.77;;;4.30;;
4222;SDS011;2125;51.436;14.138;2022-07-29T15:05:48;7.30;;;3.70;;
4222;SDS011;2125;51.436;14.138;2022-07-29T15:08:16;8.43;;;3.73;;
4222;SDS011;2125;51.436;14.138;2022-07-29T15:10:42;8.53;;;3.53;;
4222;SDS011;2125;51.436;14.138;2022-07-29T15:13:09;5.00;;;3.50;;
4222;SDS011;2125;51.436;14.138;2022-07-29T15:16:04;8.30;;;3.70;;
4222;SDS011;2125;51.436;14.138;2022-07-29T15:18:31;6.93;;;3.70;;
4222;SDS011;2125;51.436;14.138;2022-07-29T15:20:57;16.53;;;4.17;;
4222;SDS011;2125;51.436;14.138;2022-07-29T15:23:26;10.33;;;4.03;;
4222;SDS011;2125;51.436;14.138;2022-07-29T15:25:53;10.40;;;3.70;;